createdAt,value
2022-10-07T00:01:29.406Z,9.85
2022-10-07T00:03:57.823Z,9.45
2022-10-07T00:06:26.935Z,9.57
2022-10-07T00:08:55.715Z,8.73
2022-10-07T00:11:28.141Z,8.35
2022-10-07T00:13:58.483Z,10.75
2022-10-07T00:19:01.114Z,7.50
2022-10-07T00:21:32.139Z,7.90
2022-10-07T00:24:01.582Z,7.28
2022-10-07T00:26:33.339Z,6.90
2022-10-07T00:29:02.888Z,8.02
2022-10-07T00:31:33.131Z,7.70
2022-10-07T00:34:04.782Z,8.55
2022-10-07T00:36:35.423Z,6.72
2022-10-07T00:39:05.951Z,8.57
2022-10-07T00:44:38.929Z,6.57
2022-10-07T00:47:14.178Z,7.10
2022-10-07T00:49:46.419Z,7.28
2022-10-07T00:52:17.856Z,6.65
2022-10-07T00:54:46.226Z,7.82
2022-10-07T00:57:15.902Z,6.03
2022-10-07T00:59:44.611Z,8.75
2022-10-07T01:02:12.909Z,7.70
2022-10-07T01:04:42.660Z,6.93
2022-10-07T01:07:11.108Z,7.10
2022-10-07T01:09:39.917Z,6.88
2022-10-07T01:12:14.766Z,7.47
2022-10-07T01:14:53.618Z,8.02
2022-10-07T01:17:28.621Z,9.07
2022-10-07T01:20:21.620Z,8.82
2022-10-07T01:23:01.181Z,8.15
2022-10-07T01:25:46.037Z,8.02
2022-10-07T01:28:20.074Z,10.30
2022-10-07T01:30:54.916Z,7.03
2022-10-07T01:33:29.447Z,6.72
2022-10-07T01:36:04.037Z,9.32
2022-10-07T01:38:35.961Z,8.30
2022-10-07T01:41:09.449Z,7.72
2022-10-07T01:43:40.523Z,12.05
2022-10-07T01:46:12.901Z,14.23
2022-10-07T01:48:42.037Z,9.82
2022-10-07T01:51:10.960Z,8.65
2022-10-07T01:53:51.958Z,6.60
2022-10-07T01:56:43.928Z,9.50
2022-10-07T01:59:41.113Z,9.93
2022-10-07T02:02:19.772Z,6.28
2022-10-07T02:04:59.229Z,7.15
2022-10-07T02:07:40.861Z,6.45
2022-10-07T02:10:14.455Z,7.28
2022-10-07T02:12:50.137Z,7.95
2022-10-07T02:15:27.185Z,7.55
2022-10-07T02:17:59.148Z,9.48
2022-10-07T02:20:32.436Z,6.40
2022-10-07T02:23:03.503Z,9.98
2022-10-07T02:25:37.556Z,7.32
2022-10-07T02:28:08.396Z,7.90
2022-10-07T02:30:40.460Z,6.65
2022-10-07T02:33:10.801Z,8.88
2022-10-07T02:35:44.634Z,7.00
2022-10-07T02:38:15.899Z,6.68
2022-10-07T02:40:54.575Z,8.25
2022-10-07T02:43:30.699Z,6.57
2022-10-07T02:46:08.225Z,7.53
2022-10-07T02:48:42.380Z,7.57
2022-10-07T02:51:21.032Z,7.35
2022-10-07T02:53:54.446Z,7.18
2022-10-07T02:56:26.903Z,7.55
2022-10-07T02:58:56.809Z,6.68
2022-10-07T03:01:31.093Z,9.20
2022-10-07T03:04:00.118Z,6.43
2022-10-07T03:06:30.451Z,6.75
2022-10-07T03:09:02.350Z,7.22
2022-10-07T03:11:30.752Z,7.70
2022-10-07T03:13:59.644Z,8.55
2022-10-07T03:16:29.374Z,6.75
2022-10-07T03:18:59.163Z,6.88
2022-10-07T03:21:33.977Z,13.27
2022-10-07T03:24:06.014Z,8.32
2022-10-07T03:26:43.245Z,8.27
2022-10-07T03:31:43.741Z,9.00
2022-10-07T03:34:12.713Z,8.32
2022-10-07T03:36:43.527Z,9.18
2022-10-07T03:39:13.624Z,13.07
2022-10-07T03:41:43.117Z,12.38
2022-10-07T03:44:12.484Z,9.50
2022-10-07T03:46:41.103Z,9.48
2022-10-07T03:49:11.536Z,9.27
2022-10-07T03:51:39.876Z,11.32
2022-10-07T03:54:10.925Z,7.63
2022-10-07T03:56:40.737Z,9.40
2022-10-07T03:59:09.232Z,7.35
2022-10-07T04:01:38.427Z,12.00
2022-10-07T04:04:08.054Z,7.00
2022-10-07T04:06:40.242Z,9.35
2022-10-07T04:09:13.884Z,8.30
2022-10-07T04:11:43.971Z,9.35
2022-10-07T04:14:13.447Z,10.45
2022-10-07T04:16:43.338Z,8.65
2022-10-07T04:19:14.184Z,8.65
2022-10-07T04:21:45.553Z,8.93
2022-10-07T04:24:13.831Z,10.52
2022-10-07T04:26:42.661Z,8.48
2022-10-07T04:29:11.540Z,9.88
2022-10-07T04:31:40.234Z,11.50
2022-10-07T04:34:10.193Z,8.95
2022-10-07T04:36:42.367Z,10.32
2022-10-07T04:39:17.427Z,8.20
2022-10-07T04:41:54.924Z,8.18
2022-10-07T04:44:29.006Z,8.18
2022-10-07T04:47:05.459Z,9.88
2022-10-07T04:49:35.477Z,11.63
2022-10-07T04:52:06.381Z,9.07
2022-10-07T04:54:40.516Z,8.07
2022-10-07T04:57:10.024Z,23.45
2022-10-07T04:59:42.635Z,14.73
2022-10-07T05:02:15.715Z,13.23
2022-10-07T05:04:46.178Z,24.95
2022-10-07T05:07:14.786Z,15.52
2022-10-07T05:09:44.985Z,10.30
2022-10-07T05:12:17.685Z,9.07
2022-10-07T05:14:47.737Z,11.32
2022-10-07T05:17:16.896Z,8.45
2022-10-07T05:19:45.761Z,8.13
2022-10-07T05:22:14.029Z,8.55
2022-10-07T05:24:44.471Z,7.45
2022-10-07T05:27:15.070Z,10.03
2022-10-07T05:29:44.372Z,11.73
2022-10-07T05:32:13.356Z,9.52
2022-10-07T05:34:41.756Z,21.00
2022-10-07T05:37:10.745Z,21.63
2022-10-07T05:39:39.577Z,14.57
2022-10-07T05:42:16.700Z,19.27
2022-10-07T05:44:52.782Z,12.82
2022-10-07T05:47:22.188Z,14.27
2022-10-07T05:49:51.885Z,14.85
2022-10-07T05:52:21.649Z,14.35
2022-10-07T05:54:51.976Z,13.48
2022-10-07T05:57:24.105Z,13.85
2022-10-07T05:59:52.769Z,15.70
2022-10-07T06:02:23.052Z,14.35
2022-10-07T06:04:52.084Z,13.77
2022-10-07T06:07:28.299Z,17.57
2022-10-07T06:10:18.826Z,21.40
2022-10-07T06:13:07.366Z,23.33
2022-10-07T06:15:37.000Z,23.05
2022-10-07T06:18:06.340Z,27.23
2022-10-07T06:20:35.286Z,26.30
2022-10-07T06:23:04.991Z,29.42
2022-10-07T06:25:34.685Z,26.80
2022-10-07T06:28:04.360Z,33.60
2022-10-07T06:30:35.008Z,28.15
2022-10-07T06:33:04.028Z,27.58
2022-10-07T06:35:34.274Z,27.60
2022-10-07T06:38:02.554Z,27.55
2022-10-07T06:40:30.914Z,26.85
2022-10-07T06:42:59.755Z,25.58
2022-10-07T06:45:38.235Z,29.90
2022-10-07T06:48:07.082Z,22.50
2022-10-07T06:50:35.770Z,27.80
2022-10-07T06:53:05.163Z,25.17
2022-10-07T06:55:37.550Z,34.00
2022-10-07T06:58:11.479Z,30.30
2022-10-07T07:00:43.235Z,32.13
2022-10-07T07:03:12.612Z,31.73
2022-10-07T07:05:44.601Z,25.13
2022-10-07T07:08:17.190Z,30.48
2022-10-07T07:10:47.252Z,32.75
2022-10-07T07:13:16.386Z,31.80
2022-10-07T07:15:56.161Z,32.13
2022-10-07T07:18:25.292Z,28.98
2022-10-07T07:20:54.743Z,29.53
2022-10-07T07:23:24.607Z,27.10
2022-10-07T07:25:53.372Z,30.00
2022-10-07T07:28:21.779Z,26.55
2022-10-07T07:30:52.513Z,22.98
2022-10-07T07:33:20.953Z,22.13
2022-10-07T07:35:51.028Z,43.90
2022-10-07T07:38:23.422Z,34.75
2022-10-07T07:40:55.704Z,27.40
2022-10-07T07:43:24.028Z,22.73
2022-10-07T07:45:55.800Z,27.88
2022-10-07T07:48:24.141Z,29.08
2022-10-07T07:50:52.860Z,32.33
2022-10-07T07:53:22.885Z,24.45
2022-10-07T07:55:56.129Z,26.13
2022-10-07T07:58:25.813Z,34.65
2022-10-07T08:01:03.529Z,31.42
2022-10-07T08:03:32.500Z,36.45
2022-10-07T08:06:03.213Z,34.70
2022-10-07T08:08:33.077Z,33.72
2022-10-07T08:11:08.852Z,28.33
2022-10-07T08:13:39.586Z,36.47
2022-10-07T08:16:13.406Z,38.22
2022-10-07T08:18:45.875Z,31.30
2022-10-07T08:21:16.253Z,29.90
2022-10-07T08:23:44.993Z,32.72
2022-10-07T08:26:13.258Z,34.45
2022-10-07T08:28:42.216Z,32.58
2022-10-07T08:31:15.533Z,28.83
2022-10-07T08:33:45.479Z,28.63
2022-10-07T08:36:16.168Z,24.95
2022-10-07T08:38:48.745Z,27.05
2022-10-07T08:41:25.886Z,31.50
2022-10-07T08:43:56.424Z,29.75
2022-10-07T08:46:32.020Z,26.60
2022-10-07T08:49:05.031Z,23.08
2022-10-07T08:51:41.766Z,22.98
2022-10-07T08:54:15.231Z,27.73
2022-10-07T08:56:45.096Z,31.25
2022-10-07T08:59:21.366Z,32.58
2022-10-07T09:02:10.589Z,32.15
2022-10-07T09:04:48.288Z,28.55
2022-10-07T09:07:25.406Z,27.65
2022-10-07T09:09:59.713Z,25.77
2022-10-07T09:12:39.650Z,26.33
2022-10-07T09:15:18.097Z,26.05
2022-10-07T09:17:54.459Z,30.77
2022-10-07T09:20:27.829Z,24.27
2022-10-07T09:22:58.640Z,32.10
2022-10-07T09:25:28.853Z,30.10
2022-10-07T09:27:57.717Z,25.85
2022-10-07T09:30:29.540Z,23.90
2022-10-07T09:32:59.171Z,25.63
2022-10-07T09:35:31.642Z,24.43
2022-10-07T09:38:03.233Z,25.73
2022-10-07T09:40:37.724Z,28.67
2022-10-07T09:43:13.864Z,23.02
2022-10-07T09:45:47.709Z,21.95
2022-10-07T09:48:24.420Z,23.42
2022-10-07T09:50:53.001Z,24.52
2022-10-07T09:53:23.992Z,23.73
2022-10-07T09:55:54.107Z,24.40
2022-10-07T09:58:27.087Z,22.45
2022-10-07T10:00:57.785Z,25.90
2022-10-07T10:03:32.519Z,23.98
2022-10-07T10:06:02.661Z,24.63
2022-10-07T10:08:33.907Z,30.38
2022-10-07T10:11:04.880Z,24.83
2022-10-07T10:13:35.109Z,27.77
2022-10-07T10:16:05.670Z,24.70
2022-10-07T10:18:38.398Z,26.73
2022-10-07T10:21:27.647Z,25.95
2022-10-07T10:23:58.061Z,24.00
2022-10-07T10:26:57.984Z,32.13
2022-10-07T10:29:47.684Z,30.02
2022-10-07T10:32:55.707Z,29.10
2022-10-07T10:35:29.173Z,28.05
2022-10-07T10:38:06.357Z,23.65
2022-10-07T10:40:40.216Z,25.17
2022-10-07T10:43:21.926Z,27.88
2022-10-07T10:46:07.408Z,26.02
2022-10-07T10:48:42.554Z,24.38
2022-10-07T10:51:31.383Z,23.83
2022-10-07T10:54:14.351Z,25.17
2022-10-07T10:56:48.228Z,27.73
2022-10-07T10:59:34.161Z,25.13
2022-10-07T11:02:16.869Z,26.25
2022-10-07T11:04:51.212Z,22.92
2022-10-07T11:07:25.832Z,21.25
2022-10-07T11:09:59.476Z,22.13
2022-10-07T11:12:31.540Z,26.38
2022-10-07T11:15:05.684Z,22.75
2022-10-07T11:17:37.490Z,21.42
2022-10-07T11:20:17.286Z,19.13
2022-10-07T11:22:53.673Z,19.15
2022-10-07T11:25:28.929Z,17.08
2022-10-07T11:28:04.350Z,19.50
2022-10-07T11:30:49.295Z,19.17
2022-10-07T11:33:24.496Z,18.02
2022-10-07T11:35:57.519Z,22.52
2022-10-07T11:38:33.328Z,16.85
2022-10-07T11:41:05.744Z,19.67
2022-10-07T11:43:39.087Z,19.23
2022-10-07T11:50:16.791Z,22.50
2022-10-07T11:55:41.716Z,20.52
2022-10-07T11:58:25.430Z,20.05
2022-10-07T12:01:32.454Z,21.58
2022-10-07T12:04:35.298Z,19.90
2022-10-07T12:07:34.899Z,24.42
2022-10-07T12:10:25.777Z,19.35
2022-10-07T12:12:58.260Z,20.23
2022-10-07T12:15:32.787Z,16.80
2022-10-07T12:18:26.215Z,22.55
2022-10-07T12:21:05.597Z,20.48
2022-10-07T12:23:42.552Z,17.90
2022-10-07T12:26:52.075Z,19.67
2022-10-07T12:29:45.191Z,15.43
2022-10-07T12:32:49.008Z,16.45
2022-10-07T12:35:53.960Z,16.23
2022-10-07T12:38:25.981Z,18.45
2022-10-07T12:41:13.072Z,18.52
2022-10-07T12:43:56.705Z,16.58
2022-10-07T12:46:30.207Z,14.48
2022-10-07T12:49:04.047Z,14.57
2022-10-07T12:51:39.294Z,14.23
2022-10-07T12:54:15.938Z,14.18
2022-10-07T12:56:45.740Z,13.85
2022-10-07T12:59:47.639Z,11.25
2022-10-07T13:02:58.961Z,13.30
2022-10-07T13:06:09.341Z,13.95
2022-10-07T13:09:10.412Z,10.45
2022-10-07T13:12:11.488Z,10.90
2022-10-07T13:14:54.733Z,9.90
2022-10-07T13:17:36.379Z,11.98
2022-10-07T13:20:21.214Z,9.10
2022-10-07T13:22:51.281Z,9.55
2022-10-07T13:25:22.120Z,12.20
2022-10-07T13:27:54.693Z,9.20
2022-10-07T13:30:36.085Z,10.30
2022-10-07T13:33:17.440Z,10.85
2022-10-07T13:35:45.868Z,14.35
2022-10-07T13:38:26.358Z,9.35
2022-10-07T13:40:59.044Z,10.05
2022-10-07T13:43:31.107Z,11.35
2022-10-07T13:46:01.415Z,14.13
2022-10-07T13:48:35.177Z,10.98
2022-10-07T13:51:04.159Z,11.82
2022-10-07T13:53:36.829Z,15.40
2022-10-07T13:56:07.389Z,10.77
2022-10-07T13:58:37.986Z,10.55
2022-10-07T14:01:08.398Z,9.85
2022-10-07T14:04:18.045Z,12.68
2022-10-07T14:06:58.795Z,10.27
2022-10-07T14:09:44.999Z,12.10
2022-10-07T14:12:16.885Z,9.38
2022-10-07T14:14:47.500Z,13.82
2022-10-07T14:17:34.588Z,14.40
2022-10-07T14:20:05.639Z,11.45
2022-10-07T14:22:38.573Z,8.85
2022-10-07T14:25:18.901Z,12.80
2022-10-07T14:30:57.493Z,10.45
2022-10-07T14:33:48.307Z,11.65
2022-10-07T14:36:18.561Z,13.07
2022-10-07T14:38:49.352Z,9.40
2022-10-07T14:41:23.270Z,11.35
2022-10-07T14:43:54.076Z,11.88
2022-10-07T14:46:24.306Z,11.68
2022-10-07T14:48:54.129Z,11.27
2022-10-07T14:51:25.064Z,14.25
2022-10-07T14:53:57.384Z,10.15
2022-10-07T14:56:29.986Z,10.10
2022-10-07T14:58:58.588Z,9.25
2022-10-07T15:01:29.806Z,10.45
2022-10-07T15:03:58.901Z,12.70
2022-10-07T15:06:30.635Z,12.25
2022-10-07T15:09:00.596Z,10.98
2022-10-07T15:11:31.736Z,13.95
2022-10-07T15:14:00.755Z,16.73
2022-10-07T15:16:29.139Z,10.07
2022-10-07T15:18:58.997Z,9.40
2022-10-07T15:21:29.375Z,9.05
2022-10-07T15:23:58.181Z,12.43
2022-10-07T15:26:26.691Z,13.57
2022-10-07T15:28:58.365Z,16.55
2022-10-07T15:31:29.164Z,14.45
2022-10-07T15:33:58.623Z,15.93
2022-10-07T15:36:29.059Z,18.13
2022-10-07T15:41:40.705Z,14.82
2022-10-07T15:44:16.088Z,15.32
2022-10-07T15:46:45.907Z,16.60
2022-10-07T15:49:15.209Z,17.55
2022-10-07T15:51:43.698Z,18.75
2022-10-07T15:54:12.104Z,14.85
2022-10-07T15:56:40.502Z,17.90
2022-10-07T15:59:10.456Z,19.60
2022-10-07T16:01:39.230Z,15.07
2022-10-07T16:04:13.389Z,17.60
2022-10-07T16:06:42.359Z,26.65
2022-10-07T16:09:11.843Z,44.95
2022-10-07T16:11:41.532Z,33.60
2022-10-07T16:14:12.421Z,34.83
2022-10-07T16:16:41.736Z,28.27
2022-10-07T16:19:11.530Z,31.33
2022-10-07T16:21:41.772Z,31.27
2022-10-07T16:24:14.533Z,24.15
2022-10-07T16:26:43.222Z,25.95
2022-10-07T16:29:34.348Z,23.60
2022-10-07T16:32:03.039Z,45.50
2022-10-07T16:34:35.537Z,43.63
2022-10-07T16:37:05.860Z,22.25
2022-10-07T16:39:34.271Z,22.70
2022-10-07T16:42:02.646Z,25.40
2022-10-07T16:44:32.424Z,25.27
2022-10-07T16:47:01.408Z,39.60
2022-10-07T16:49:36.502Z,21.90
2022-10-07T16:52:06.376Z,20.70
2022-10-07T16:54:35.572Z,18.80
2022-10-07T16:57:04.411Z,19.50
2022-10-07T16:59:34.610Z,20.85
2022-10-07T17:02:05.018Z,18.73
2022-10-07T17:07:07.773Z,17.30
2022-10-07T17:09:36.837Z,19.52
2022-10-07T17:12:06.820Z,22.38
2022-10-07T17:14:38.551Z,22.60
2022-10-07T17:17:07.862Z,20.17
2022-10-07T17:19:36.700Z,20.05
2022-10-07T17:22:05.290Z,20.67
2022-10-07T17:24:35.456Z,20.52
2022-10-07T17:27:07.811Z,26.95
2022-10-07T17:29:39.093Z,24.35
2022-10-07T17:32:09.793Z,27.35
2022-10-07T17:34:41.917Z,39.65
2022-10-07T17:37:13.065Z,26.70
2022-10-07T17:39:41.302Z,42.60
2022-10-07T17:42:09.583Z,145.52
2022-10-07T17:44:39.412Z,54.75
2022-10-07T17:47:07.816Z,67.38
2022-10-07T17:49:36.052Z,45.67
2022-10-07T17:52:04.386Z,38.47
2022-10-07T17:54:32.657Z,34.83
2022-10-07T17:57:00.931Z,34.65
2022-10-07T17:59:29.324Z,30.63
2022-10-07T18:01:59.003Z,28.00
2022-10-07T18:04:27.494Z,28.70
2022-10-07T18:06:56.181Z,30.77
2022-10-07T18:09:24.505Z,35.78
2022-10-07T18:12:10.194Z,34.33
2022-10-07T18:14:56.076Z,35.42
2022-10-07T18:17:25.755Z,35.78
2022-10-07T18:19:54.133Z,40.43
2022-10-07T18:22:22.494Z,35.67
2022-10-07T18:24:50.825Z,31.23
2022-10-07T18:27:27.327Z,31.25
2022-10-07T18:29:56.602Z,27.83
2022-10-07T18:32:26.579Z,27.27
2022-10-07T18:34:54.890Z,27.25
2022-10-07T18:37:23.893Z,27.48
2022-10-07T18:39:52.481Z,28.52
2022-10-07T18:42:20.800Z,35.53
2022-10-07T18:44:50.303Z,34.83
2022-10-07T18:47:18.772Z,27.90
2022-10-07T18:49:48.549Z,27.73
2022-10-07T18:52:17.999Z,31.90
2022-10-07T18:54:46.309Z,27.35
2022-10-07T18:57:14.901Z,26.13
2022-10-07T18:59:43.313Z,29.17
2022-10-07T19:02:12.435Z,50.60
2022-10-07T19:04:41.215Z,71.03
2022-10-07T19:07:11.159Z,26.30
2022-10-07T19:09:39.525Z,26.47
2022-10-07T19:12:28.384Z,26.05
2022-10-07T19:14:55.956Z,29.55
2022-10-07T19:17:24.273Z,25.42
2022-10-07T19:19:52.956Z,26.40
2022-10-07T19:22:22.638Z,25.17
2022-10-07T19:25:08.889Z,22.25
2022-10-07T19:27:38.608Z,29.15
2022-10-07T19:30:08.622Z,30.10
2022-10-07T19:32:36.952Z,29.20
2022-10-07T19:35:06.233Z,28.98
2022-10-07T19:37:35.831Z,30.17
2022-10-07T19:40:04.347Z,33.97
2022-10-07T19:42:32.648Z,28.92
2022-10-07T19:45:00.962Z,28.33
2022-10-07T19:47:29.959Z,30.25
2022-10-07T19:49:58.208Z,31.25
2022-10-07T19:52:27.413Z,35.65
2022-10-07T19:54:57.152Z,31.27
2022-10-07T19:57:25.675Z,33.57
2022-10-07T19:59:54.064Z,31.80
2022-10-07T20:02:22.380Z,28.02
2022-10-07T20:04:50.663Z,37.78
2022-10-07T20:07:19.480Z,30.77
2022-10-07T20:09:47.731Z,25.13
2022-10-07T20:12:17.359Z,26.90
2022-10-07T20:14:46.325Z,33.10
2022-10-07T20:17:24.645Z,30.45
2022-10-07T20:19:53.696Z,30.08
2022-10-07T20:22:22.092Z,22.40
2022-10-07T20:24:50.333Z,26.65
2022-10-07T20:27:20.047Z,33.10
2022-10-07T20:30:02.429Z,29.63
2022-10-07T20:32:34.011Z,33.42
2022-10-07T20:35:10.685Z,31.47
2022-10-07T20:37:39.166Z,31.67
2022-10-07T20:40:25.680Z,43.78
2022-10-07T20:42:55.657Z,38.92
2022-10-07T20:45:24.721Z,37.53
2022-10-07T20:47:55.200Z,42.15
2022-10-07T20:52:51.950Z,42.28
2022-10-07T20:55:21.169Z,47.15
2022-10-07T20:57:51.414Z,38.80
2022-10-07T21:00:21.619Z,41.70
2022-10-07T21:02:50.777Z,42.50
2022-10-07T21:05:19.532Z,42.65
2022-10-07T21:07:52.481Z,37.70
2022-10-07T21:10:22.940Z,39.83
2022-10-07T21:12:51.542Z,38.92
2022-10-07T21:15:30.329Z,37.55
2022-10-07T21:17:59.177Z,40.15
2022-10-07T21:20:27.488Z,40.38
2022-10-07T21:22:55.973Z,41.58
2022-10-07T21:25:24.332Z,46.58
2022-10-07T21:27:53.595Z,42.67
2022-10-07T21:30:23.449Z,46.85
2022-10-07T21:32:51.757Z,36.67
2022-10-07T21:35:20.513Z,38.33
2022-10-07T21:37:49.283Z,35.40
2022-10-07T21:40:18.096Z,34.13
2022-10-07T21:42:46.530Z,37.53
2022-10-07T21:45:16.683Z,36.15
2022-10-07T21:47:46.328Z,28.77
2022-10-07T21:50:15.142Z,33.33
2022-10-07T21:52:44.324Z,32.70
2022-10-07T21:55:17.683Z,33.50
2022-10-07T21:57:46.486Z,31.17
2022-10-07T22:00:16.764Z,42.95
2022-10-07T22:02:46.677Z,39.92
2022-10-07T22:05:16.363Z,34.97
2022-10-07T22:08:02.011Z,40.45
2022-10-07T22:10:30.783Z,46.55
2022-10-07T22:12:59.081Z,41.40
2022-10-07T22:15:27.752Z,39.17
2022-10-07T22:17:57.588Z,37.28
2022-10-07T22:20:26.354Z,31.38
2022-10-07T22:22:59.155Z,32.50
2022-10-07T22:25:28.588Z,42.35
2022-10-07T22:27:56.851Z,36.20
2022-10-07T22:30:25.554Z,30.67
2022-10-07T22:32:54.053Z,33.75
2022-10-07T22:35:30.539Z,30.10
2022-10-07T22:37:59.542Z,29.23
2022-10-07T22:40:27.889Z,26.55
2022-10-07T22:42:56.427Z,28.52
2022-10-07T22:45:25.040Z,30.88
2022-10-07T22:47:53.673Z,29.00
2022-10-07T22:50:23.327Z,27.08
2022-10-07T22:52:51.752Z,27.33
2022-10-07T22:55:21.316Z,25.35
2022-10-07T22:57:50.112Z,26.07
2022-10-07T23:00:18.729Z,26.58
2022-10-07T23:02:47.916Z,25.17
2022-10-07T23:05:17.194Z,27.17
2022-10-07T23:07:47.329Z,26.95
2022-10-07T23:10:15.800Z,27.25
2022-10-07T23:12:44.826Z,22.58
2022-10-07T23:15:14.008Z,26.52
2022-10-07T23:17:42.279Z,27.60
2022-10-07T23:20:11.252Z,27.38
2022-10-07T23:22:40.507Z,23.65
2022-10-07T23:25:10.895Z,21.30
2022-10-07T23:27:40.212Z,25.15
2022-10-07T23:30:10.796Z,22.48
2022-10-07T23:32:39.113Z,24.35
2022-10-07T23:35:08.151Z,26.77
2022-10-07T23:37:36.654Z,29.60
2022-10-07T23:40:05.864Z,25.85
2022-10-07T23:42:35.594Z,29.45
2022-10-07T23:45:04.117Z,29.30
2022-10-07T23:47:33.110Z,29.10
2022-10-07T23:50:01.618Z,31.40
2022-10-07T23:52:32.479Z,28.38
2022-10-07T23:55:00.809Z,31.17
2022-10-07T23:57:29.658Z,30.45
2022-10-07T23:59:59.330Z,33.70
